FAUT

K. D. Matanzima Airport

Mthatha, South Africa
METAR FAUT 171427Z 14012KT 9999 SCT030 FEW040CB 31/17 Q1011
Observed Flight Rules
Dec-17 @ 14:27 UTC (14 minutes ago) Visual Flight Rules
Wind Visibility Clouds
140° at 12 knots 10,000+ meters
  • Scattered at 3,000' AGL
  • Few at 4,000' AGL
Temperatures Readings
Current 31°C / 88°F
Dewpoint 17°C / 63°F
Humidity 43%
Altimeter 29.85" Hg
Pressure 1011 hPa
Elevation 732
METAR FAUT 171427Z 14012KT 9999 SCT030 FEW040CB 31/17 Q1011
Observed Flight Rules
Dec-17 @ 14:27 UTC
(14 minutes ago)
VFR
Wind Visibility
140° at 12 knots 10,000+ meters
Clouds
  • Scattered at 3,000' AGL
  • Few at 4,000' AGL
Temperature Dewpoint
31°C / 88°F 17°C / 63°F
Humidity Altimeter Pressure
43% 29.85" Hg 1011 hPa